createdAt,value
2022-08-29T00:02:24.572Z,12.26
2022-08-29T00:04:53.092Z,12.25
2022-08-29T00:07:22.249Z,12.21
2022-08-29T00:09:50.226Z,12.16
2022-08-29T00:12:18.198Z,12.17
2022-08-29T00:14:47.847Z,12.14
2022-08-29T00:17:16.032Z,12.12
2022-08-29T00:19:43.973Z,12.09
2022-08-29T00:22:12.024Z,12.12
2022-08-29T00:24:40.367Z,12.08
2022-08-29T00:27:08.667Z,12.08
2022-08-29T00:29:36.850Z,12.04
2022-08-29T00:32:06.881Z,12.02
2022-08-29T00:34:34.962Z,11.99
2022-08-29T00:37:02.952Z,11.97
2022-08-29T00:39:32.940Z,11.95
2022-08-29T00:42:01.205Z,11.93
2022-08-29T00:44:29.319Z,11.93
2022-08-29T00:47:00.355Z,11.93
2022-08-29T00:49:39.246Z,11.92
2022-08-29T00:52:12.427Z,11.90
2022-08-29T00:54:42.542Z,11.90
2022-08-29T00:57:10.938Z,11.87
2022-08-29T00:59:43.108Z,11.90
2022-08-29T01:02:12.055Z,11.87
2022-08-29T01:04:42.312Z,11.88
2022-08-29T01:07:11.743Z,11.88
2022-08-29T01:09:42.572Z,11.88
2022-08-29T01:12:19.957Z,11.87
2022-08-29T01:14:51.590Z,11.85
2022-08-29T01:17:24.059Z,11.81
2022-08-29T01:20:00.213Z,11.79
2022-08-29T01:22:40.475Z,11.77
2022-08-29T01:25:13.631Z,11.74
2022-08-29T01:27:45.620Z,11.75
2022-08-29T01:30:15.294Z,11.78
2022-08-29T01:32:43.301Z,11.77
2022-08-29T01:35:11.762Z,11.77
2022-08-29T01:37:42.406Z,11.76
2022-08-29T01:40:13.155Z,11.76
2022-08-29T01:42:41.403Z,11.74
2022-08-29T01:45:10.979Z,11.72
2022-08-29T01:47:40.061Z,11.73
2022-08-29T01:50:11.369Z,11.73
2022-08-29T01:52:39.622Z,11.69
2022-08-29T01:55:08.234Z,11.65
2022-08-29T01:57:40.087Z,11.61
2022-08-29T02:00:10.588Z,11.60
2022-08-29T02:02:38.413Z,11.51
2022-08-29T02:05:07.552Z,11.53
2022-08-29T02:07:35.499Z,11.51
2022-08-29T02:10:03.561Z,11.52
2022-08-29T02:12:31.844Z,11.50
2022-08-29T02:15:01.328Z,11.46
2022-08-29T02:17:29.787Z,11.45
2022-08-29T02:19:57.948Z,11.41
2022-08-29T02:22:26.329Z,11.41
2022-08-29T02:24:54.271Z,11.41
2022-08-29T02:27:22.508Z,11.38
2022-08-29T02:29:50.466Z,11.35
2022-08-29T02:32:19.894Z,11.34
2022-08-29T02:34:48.518Z,11.32
2022-08-29T02:37:17.084Z,11.31
2022-08-29T02:39:45.216Z,11.30
2022-08-29T02:42:13.201Z,11.27
2022-08-29T02:44:41.127Z,11.27
2022-08-29T02:47:10.532Z,11.26
2022-08-29T02:49:39.878Z,11.23
2022-08-29T02:52:08.770Z,11.24
2022-08-29T02:54:37.095Z,11.21
2022-08-29T02:57:05.887Z,11.21
2022-08-29T02:59:33.923Z,11.20
2022-08-29T03:02:01.954Z,11.18
2022-08-29T03:04:30.087Z,11.17
2022-08-29T03:06:59.394Z,11.14
2022-08-29T03:09:27.383Z,11.12
2022-08-29T03:11:56.715Z,11.11
2022-08-29T03:14:25.009Z,11.11
2022-08-29T03:16:53.381Z,11.08
2022-08-29T03:19:22.970Z,11.07
2022-08-29T03:21:50.984Z,11.05
2022-08-29T03:24:26.315Z,11.05
2022-08-29T03:26:56.824Z,11.03
2022-08-29T03:29:25.786Z,11.03
2022-08-29T03:31:54.018Z,11.01
2022-08-29T03:34:22.071Z,11.02
2022-08-29T03:36:50.095Z,10.98
2022-08-29T03:39:18.212Z,10.96
2022-08-29T03:41:47.647Z,10.97
2022-08-29T03:44:16.058Z,10.94
2022-08-29T03:46:44.085Z,10.92
2022-08-29T03:49:12.260Z,10.91
2022-08-29T03:51:41.469Z,10.91
2022-08-29T03:54:10.033Z,10.91
2022-08-29T03:56:38.121Z,10.90
2022-08-29T03:59:07.510Z,10.88
2022-08-29T04:01:35.865Z,10.87
2022-08-29T04:04:04.615Z,10.88
2022-08-29T04:06:33.810Z,10.86
2022-08-29T04:09:02.211Z,10.84
2022-08-29T04:11:30.249Z,10.84
2022-08-29T04:13:58.182Z,10.82
2022-08-29T04:16:30.681Z,10.85
2022-08-29T04:18:59.599Z,10.84
2022-08-29T04:21:27.577Z,10.83
2022-08-29T04:23:55.595Z,10.84
2022-08-29T04:26:36.496Z,10.84
2022-08-29T04:29:05.891Z,10.85
2022-08-29T04:31:36.612Z,10.86
2022-08-29T04:34:06.161Z,10.88
2022-08-29T04:36:35.355Z,10.88
2022-08-29T04:39:04.075Z,10.91
2022-08-29T04:41:33.265Z,10.93
2022-08-29T04:44:01.573Z,10.94
2022-08-29T04:46:29.993Z,10.95
2022-08-29T04:49:03.987Z,10.96
2022-08-29T04:51:32.509Z,10.97
2022-08-29T04:54:00.483Z,10.99
2022-08-29T04:56:28.735Z,11.04
2022-08-29T04:58:57.778Z,11.09
2022-08-29T05:01:27.351Z,11.13
2022-08-29T05:03:56.540Z,11.17
2022-08-29T05:06:26.512Z,11.21
2022-08-29T05:08:59.832Z,11.23
2022-08-29T05:11:30.256Z,11.28
2022-08-29T05:13:58.956Z,11.33
2022-08-29T05:16:27.049Z,11.38
2022-08-29T05:18:55.226Z,11.40
2022-08-29T05:21:35.114Z,11.44
2022-08-29T05:24:03.914Z,11.47
2022-08-29T05:26:33.051Z,11.53
2022-08-29T05:29:01.230Z,11.57
2022-08-29T05:31:29.699Z,11.65
2022-08-29T05:33:58.031Z,11.68
2022-08-29T05:36:27.612Z,11.71
2022-08-29T05:38:55.809Z,11.78
2022-08-29T05:41:23.863Z,11.84
2022-08-29T05:43:51.951Z,11.90
2022-08-29T05:46:20.357Z,11.93
2022-08-29T05:48:48.966Z,11.99
2022-08-29T05:51:19.073Z,12.25
2022-08-29T05:53:49.319Z,13.12
2022-08-29T05:56:25.607Z,13.50
2022-08-29T05:58:53.681Z,13.27
2022-08-29T06:01:25.781Z,12.98
2022-08-29T06:03:54.294Z,13.11
2022-08-29T06:06:23.555Z,13.09
2022-08-29T06:08:53.569Z,13.37
2022-08-29T06:11:23.848Z,13.48
2022-08-29T06:13:51.899Z,13.31
2022-08-29T06:16:22.154Z,13.32
2022-08-29T06:18:50.343Z,13.23
2022-08-29T06:21:18.533Z,13.36
2022-08-29T06:23:47.202Z,13.45
2022-08-29T06:26:17.142Z,13.69
2022-08-29T06:28:47.162Z,13.73
2022-08-29T06:31:17.836Z,13.97
2022-08-29T06:33:45.899Z,14.05
2022-08-29T06:36:14.408Z,14.11
2022-08-29T06:38:42.472Z,14.11
2022-08-29T06:41:12.640Z,14.07
2022-08-29T06:43:45.133Z,14.12
2022-08-29T06:46:23.604Z,13.99
2022-08-29T06:48:52.621Z,13.81
2022-08-29T06:51:20.694Z,13.83
2022-08-29T06:53:48.651Z,13.84
2022-08-29T06:56:17.367Z,13.87
2022-08-29T06:58:48.027Z,13.88
2022-08-29T07:01:19.876Z,13.88
2022-08-29T07:03:48.209Z,13.89
2022-08-29T07:06:17.941Z,13.85
2022-08-29T07:08:56.016Z,13.78
2022-08-29T07:11:25.197Z,13.80
2022-08-29T07:13:56.836Z,13.85
2022-08-29T07:16:27.073Z,13.89
2022-08-29T07:18:55.471Z,13.92
2022-08-29T07:21:25.199Z,13.92
2022-08-29T07:23:54.967Z,13.90
2022-08-29T07:26:25.823Z,13.93
2022-08-29T07:28:57.147Z,14.07
2022-08-29T07:31:31.047Z,14.13
2022-08-29T07:34:02.299Z,14.18
2022-08-29T07:36:31.326Z,14.23
2022-08-29T07:38:59.239Z,14.28
2022-08-29T07:41:28.586Z,14.33
2022-08-29T07:43:58.499Z,14.42
2022-08-29T07:46:27.162Z,14.48
2022-08-29T07:48:55.336Z,14.59
2022-08-29T07:51:24.772Z,14.70
2022-08-29T07:53:56.414Z,14.84
2022-08-29T07:56:33.444Z,14.97
2022-08-29T07:59:07.691Z,15.13
2022-08-29T08:01:35.679Z,15.09
2022-08-29T08:04:04.089Z,14.95
2022-08-29T08:06:34.480Z,14.91
2022-08-29T08:09:04.218Z,14.81
2022-08-29T08:11:32.692Z,14.77
2022-08-29T08:14:00.758Z,14.75
2022-08-29T08:16:30.747Z,14.72
2022-08-29T08:19:02.240Z,14.67
2022-08-29T08:21:30.278Z,14.64
2022-08-29T08:23:58.569Z,14.66
2022-08-29T08:26:29.255Z,14.67
2022-08-29T08:28:57.599Z,14.69
2022-08-29T08:31:26.396Z,14.75
2022-08-29T08:33:55.995Z,14.82
2022-08-29T08:36:28.514Z,14.94
2022-08-29T08:38:57.260Z,15.10
2022-08-29T08:41:38.071Z,15.18
2022-08-29T08:44:08.423Z,15.33
2022-08-29T08:46:39.830Z,15.36
2022-08-29T08:49:13.286Z,15.44
2022-08-29T08:51:45.329Z,15.44
2022-08-29T08:54:20.202Z,15.49
2022-08-29T08:56:52.993Z,15.58
2022-08-29T08:59:26.658Z,15.56
2022-08-29T09:02:07.469Z,15.48
2022-08-29T09:04:53.794Z,15.47
2022-08-29T09:07:44.268Z,15.56
2022-08-29T09:10:26.318Z,15.66
2022-08-29T09:13:07.035Z,15.73
2022-08-29T09:15:42.447Z,15.77
2022-08-29T09:18:13.983Z,15.81
2022-08-29T09:20:43.465Z,15.86
2022-08-29T09:23:20.443Z,15.80
2022-08-29T09:25:49.272Z,15.79
2022-08-29T09:28:17.183Z,15.82
2022-08-29T09:31:06.152Z,15.79
2022-08-29T09:33:43.896Z,15.74
2022-08-29T09:36:15.420Z,15.75
2022-08-29T09:38:46.413Z,15.66
2022-08-29T09:41:28.356Z,15.64
2022-08-29T09:43:58.823Z,15.66
2022-08-29T09:46:27.205Z,15.79
2022-08-29T09:49:13.855Z,15.84
2022-08-29T09:51:48.593Z,15.87
2022-08-29T09:54:24.769Z,15.88
2022-08-29T09:56:56.183Z,15.94
2022-08-29T09:59:28.500Z,15.95
2022-08-29T10:02:16.421Z,15.86
2022-08-29T10:04:46.476Z,15.86
2022-08-29T10:07:19.899Z,15.92
2022-08-29T10:10:00.427Z,16.06
2022-08-29T10:12:41.690Z,16.24
2022-08-29T10:15:39.585Z,16.11
2022-08-29T10:18:28.730Z,16.02
2022-08-29T10:21:10.362Z,16.09
2022-08-29T10:23:51.606Z,15.98
2022-08-29T10:26:30.178Z,16.01
2022-08-29T10:29:05.096Z,16.00
2022-08-29T10:31:38.921Z,15.90
2022-08-29T10:34:22.984Z,15.78
2022-08-29T10:36:58.795Z,15.81
2022-08-29T10:39:37.123Z,15.79
2022-08-29T10:42:10.028Z,15.82
2022-08-29T10:44:50.539Z,15.74
2022-08-29T10:47:25.915Z,15.60
2022-08-29T10:50:16.977Z,15.58
2022-08-29T10:52:57.578Z,15.60
2022-08-29T10:55:42.811Z,15.63
2022-08-29T10:58:21.639Z,15.60
2022-08-29T11:00:55.068Z,15.66
2022-08-29T11:03:36.065Z,15.63
2022-08-29T11:06:10.731Z,15.59
2022-08-29T11:08:45.656Z,15.68
2022-08-29T11:11:18.422Z,15.80
2022-08-29T11:13:50.971Z,16.01
2022-08-29T11:16:26.579Z,15.97
2022-08-29T11:19:03.886Z,16.00
2022-08-29T11:21:40.020Z,16.06
2022-08-29T11:24:08.264Z,16.28
2022-08-29T11:26:50.047Z,16.21
2022-08-29T11:29:32.446Z,16.11
2022-08-29T11:32:08.315Z,16.15
2022-08-29T11:34:49.048Z,16.29
2022-08-29T11:37:38.131Z,16.19
2022-08-29T11:40:16.221Z,16.20
2022-08-29T11:42:50.473Z,16.25
2022-08-29T11:45:28.338Z,16.15
2022-08-29T11:48:19.974Z,16.08
2022-08-29T11:50:49.349Z,16.09
2022-08-29T11:53:33.825Z,16.02
2022-08-29T11:56:22.375Z,15.91
2022-08-29T11:58:53.777Z,15.84
2022-08-29T12:01:57.407Z,15.79
2022-08-29T12:04:51.746Z,15.92
2022-08-29T12:07:20.612Z,16.01
2022-08-29T12:09:52.923Z,15.93
2022-08-29T12:12:45.941Z,15.89
2022-08-29T12:15:55.834Z,15.75
2022-08-29T12:18:42.038Z,15.77
2022-08-29T12:21:48.727Z,15.99
2022-08-29T12:24:40.591Z,16.01
2022-08-29T12:27:24.220Z,16.16
2022-08-29T12:29:54.667Z,16.04
2022-08-29T12:32:34.547Z,15.93
2022-08-29T12:35:38.085Z,15.92
2022-08-29T12:38:28.061Z,15.93
2022-08-29T12:41:09.783Z,16.06
2022-08-29T12:43:42.693Z,16.04
2022-08-29T12:46:15.215Z,16.09
2022-08-29T12:48:57.184Z,16.15
2022-08-29T12:51:39.543Z,16.09
2022-08-29T12:54:09.939Z,15.99
2022-08-29T12:56:43.767Z,16.01
2022-08-29T12:59:19.195Z,16.16
2022-08-29T13:01:56.155Z,16.21
2022-08-29T13:04:26.209Z,16.27
2022-08-29T13:07:04.119Z,16.28
2022-08-29T13:09:34.575Z,16.33
2022-08-29T13:12:17.301Z,16.28
2022-08-29T13:14:55.343Z,16.31
2022-08-29T13:17:25.639Z,16.38
2022-08-29T13:20:30.626Z,16.36
2022-08-29T13:23:15.770Z,16.27
2022-08-29T13:25:54.335Z,16.38
2022-08-29T13:28:27.703Z,16.35
2022-08-29T13:31:09.106Z,16.25
2022-08-29T13:33:38.364Z,16.42
2022-08-29T13:36:31.139Z,16.54
2022-08-29T13:39:41.797Z,16.48
2022-08-29T13:42:27.518Z,16.28
2022-08-29T13:45:15.984Z,16.18
2022-08-29T13:47:56.127Z,16.29
2022-08-29T13:50:24.934Z,16.35
2022-08-29T13:52:54.361Z,16.21
2022-08-29T13:55:23.685Z,16.16
2022-08-29T13:57:56.198Z,16.17
2022-08-29T14:00:34.720Z,16.19
2022-08-29T14:03:07.021Z,16.09
2022-08-29T14:05:36.333Z,15.99
2022-08-29T14:08:06.235Z,15.89
2022-08-29T14:10:35.530Z,15.83
2022-08-29T14:13:04.116Z,15.80
2022-08-29T14:15:32.809Z,15.77
2022-08-29T14:18:00.938Z,15.74
2022-08-29T14:20:28.825Z,15.68
2022-08-29T14:22:59.847Z,15.66
2022-08-29T14:25:27.794Z,15.68
2022-08-29T14:28:00.211Z,15.67
2022-08-29T14:30:28.338Z,15.66
2022-08-29T14:32:56.309Z,15.60
2022-08-29T14:35:31.735Z,15.56
2022-08-29T14:38:01.928Z,15.58
2022-08-29T14:40:30.808Z,15.61
2022-08-29T14:43:04.360Z,15.55
2022-08-29T14:45:33.059Z,15.51
2022-08-29T14:48:01.585Z,15.50
2022-08-29T14:50:32.422Z,15.47
2022-08-29T14:53:00.899Z,15.44
2022-08-29T14:55:33.211Z,15.44
2022-08-29T14:58:06.079Z,15.44
2022-08-29T15:00:34.504Z,15.47
2022-08-29T15:03:02.501Z,15.48
2022-08-29T15:05:34.070Z,15.48
2022-08-29T15:08:06.425Z,15.48
2022-08-29T15:10:34.885Z,15.45
2022-08-29T15:13:03.014Z,15.43
2022-08-29T15:15:35.559Z,15.40
2022-08-29T15:18:06.546Z,15.42
2022-08-29T15:20:37.301Z,15.44
2022-08-29T15:23:06.062Z,15.43
2022-08-29T15:25:34.551Z,15.42
2022-08-29T15:28:02.562Z,15.42
2022-08-29T15:30:30.598Z,15.39
2022-08-29T15:32:59.992Z,15.46
2022-08-29T15:35:27.975Z,15.53
2022-08-29T15:37:55.883Z,15.56
2022-08-29T15:40:24.024Z,15.58
2022-08-29T15:42:52.331Z,15.62
2022-08-29T15:45:22.499Z,15.63
2022-08-29T15:47:50.728Z,15.57
2022-08-29T15:50:24.093Z,15.59
2022-08-29T15:52:52.313Z,15.66
2022-08-29T15:55:20.643Z,15.70
2022-08-29T15:57:52.263Z,15.66
2022-08-29T16:00:29.671Z,15.60
2022-08-29T16:03:00.557Z,15.57
2022-08-29T16:05:30.236Z,15.59
2022-08-29T16:07:58.207Z,15.62
2022-08-29T16:10:26.374Z,15.60
2022-08-29T16:12:54.354Z,15.58
2022-08-29T16:15:22.379Z,15.58
2022-08-29T16:17:50.324Z,15.55
2022-08-29T16:20:18.858Z,15.59
2022-08-29T16:22:48.275Z,15.55
2022-08-29T16:25:16.683Z,15.53
2022-08-29T16:27:44.742Z,15.46
2022-08-29T16:30:13.066Z,15.45
2022-08-29T16:32:41.654Z,15.41
2022-08-29T16:35:10.410Z,15.42
2022-08-29T16:37:38.644Z,15.42
2022-08-29T16:40:09.782Z,15.38
2022-08-29T16:42:39.435Z,15.39
2022-08-29T16:45:09.871Z,15.33
2022-08-29T16:47:37.684Z,15.24
2022-08-29T16:50:07.336Z,15.27
2022-08-29T16:52:35.223Z,15.27
2022-08-29T16:55:04.550Z,15.24
2022-08-29T16:57:33.847Z,15.21
2022-08-29T17:00:01.770Z,15.18
2022-08-29T17:02:30.282Z,15.17
2022-08-29T17:04:58.467Z,15.16
2022-08-29T17:07:33.918Z,15.13
2022-08-29T17:10:02.189Z,15.12
2022-08-29T17:12:30.015Z,15.07
2022-08-29T17:14:58.766Z,15.03
2022-08-29T17:17:26.785Z,14.97
2022-08-29T17:19:54.687Z,14.94
2022-08-29T17:22:23.178Z,14.91
2022-08-29T17:24:51.215Z,14.89
2022-08-29T17:27:21.598Z,14.85
2022-08-29T17:29:50.312Z,14.80
2022-08-29T17:32:19.709Z,14.76
2022-08-29T17:34:48.023Z,14.73
2022-08-29T17:37:16.442Z,14.70
2022-08-29T17:39:44.366Z,14.69
2022-08-29T17:42:12.753Z,14.64
2022-08-29T17:44:42.207Z,14.58
2022-08-29T17:47:10.169Z,14.58
2022-08-29T17:49:39.478Z,14.54
2022-08-29T17:52:07.446Z,14.48
2022-08-29T17:54:36.183Z,14.44
2022-08-29T17:57:04.849Z,14.41
2022-08-29T17:59:35.288Z,14.37
2022-08-29T18:02:03.178Z,14.23
2022-08-29T18:04:31.157Z,14.27
2022-08-29T18:07:00.451Z,14.25
2022-08-29T18:09:28.471Z,14.21
2022-08-29T18:11:58.278Z,14.16
2022-08-29T18:14:26.803Z,14.11
2022-08-29T18:16:55.692Z,14.07
2022-08-29T18:19:24.113Z,14.04
2022-08-29T18:21:53.800Z,13.99
2022-08-29T18:24:23.699Z,13.93
2022-08-29T18:26:52.186Z,13.91
2022-08-29T18:29:20.816Z,13.93
2022-08-29T18:31:49.035Z,13.88
2022-08-29T18:34:17.142Z,13.86
2022-08-29T18:36:46.391Z,13.80
2022-08-29T18:39:15.935Z,13.76
2022-08-29T18:41:45.263Z,13.72
2022-08-29T18:44:13.586Z,13.69
2022-08-29T18:46:48.146Z,13.69
2022-08-29T18:49:16.980Z,13.65
2022-08-29T18:51:44.896Z,13.62
2022-08-29T18:54:17.458Z,13.60
2022-08-29T18:56:48.323Z,13.59
2022-08-29T18:59:16.231Z,13.55
2022-08-29T19:01:44.416Z,13.51
2022-08-29T19:04:12.446Z,13.47
2022-08-29T19:06:40.374Z,13.44
2022-08-29T19:09:08.450Z,13.39
2022-08-29T19:11:36.521Z,13.37
2022-08-29T19:14:05.842Z,13.35
2022-08-29T19:16:34.350Z,13.31
2022-08-29T19:19:02.314Z,13.28
2022-08-29T19:21:29.280Z,13.24
2022-08-29T19:23:57.234Z,13.22
2022-08-29T19:26:28.456Z,13.18
2022-08-29T19:28:59.098Z,13.16
2022-08-29T19:31:29.529Z,13.13
2022-08-29T19:33:58.288Z,13.05
2022-08-29T19:36:27.028Z,13.02
2022-08-29T19:38:55.098Z,12.97
2022-08-29T19:41:23.262Z,12.95
2022-08-29T19:43:53.502Z,12.91
2022-08-29T19:46:24.055Z,12.88
2022-08-29T19:48:53.777Z,12.85
2022-08-29T19:51:24.675Z,12.81
2022-08-29T19:53:53.481Z,12.78
2022-08-29T19:56:21.369Z,12.77
2022-08-29T19:58:49.643Z,12.74
2022-08-29T20:01:17.802Z,12.71
2022-08-29T20:03:45.849Z,12.70
2022-08-29T20:06:15.852Z,12.68
2022-08-29T20:08:46.748Z,12.67
2022-08-29T20:11:18.254Z,12.63
2022-08-29T20:13:50.513Z,12.62
2022-08-29T20:16:22.504Z,12.61
2022-08-29T20:18:52.202Z,12.58
2022-08-29T20:21:23.583Z,12.57
2022-08-29T20:23:55.967Z,12.53
2022-08-29T20:26:26.217Z,12.46
2022-08-29T20:28:54.311Z,12.45
2022-08-29T20:31:23.131Z,12.43
2022-08-29T20:33:51.451Z,12.41
2022-08-29T20:36:40.284Z,12.40
2022-08-29T20:39:11.172Z,12.38
2022-08-29T20:41:39.322Z,12.37
2022-08-29T20:44:09.894Z,12.36
2022-08-29T20:46:41.093Z,12.35
2022-08-29T20:49:09.610Z,12.33
2022-08-29T20:51:40.280Z,12.34
2022-08-29T20:54:08.215Z,12.34
2022-08-29T20:56:36.175Z,12.30
2022-08-29T20:59:04.693Z,12.28
2022-08-29T21:01:33.236Z,12.29
2022-08-29T21:04:20.978Z,12.32
2022-08-29T21:06:54.926Z,12.31
2022-08-29T21:09:23.517Z,12.31
2022-08-29T21:11:52.796Z,12.29
2022-08-29T21:14:22.484Z,12.29
2022-08-29T21:16:51.202Z,12.27
2022-08-29T21:19:19.504Z,12.27
2022-08-29T21:21:48.553Z,12.25
2022-08-29T21:24:18.270Z,12.21
2022-08-29T21:26:46.412Z,12.21
2022-08-29T21:29:14.289Z,12.16
2022-08-29T21:31:42.330Z,12.13
2022-08-29T21:34:11.551Z,12.08
2022-08-29T21:36:40.228Z,12.07
2022-08-29T21:39:10.554Z,12.05
2022-08-29T21:41:42.314Z,12.02
2022-08-29T21:44:12.478Z,11.98
2022-08-29T21:46:43.461Z,11.96
2022-08-29T21:49:14.623Z,11.93
2022-08-29T21:51:42.518Z,11.91
2022-08-29T21:54:13.750Z,11.90
2022-08-29T21:56:44.266Z,11.87
2022-08-29T21:59:12.948Z,11.85
2022-08-29T22:01:43.855Z,11.82
2022-08-29T22:04:19.192Z,11.82
2022-08-29T22:06:58.154Z,11.82
2022-08-29T22:09:26.466Z,11.79
2022-08-29T22:11:56.206Z,11.77
2022-08-29T22:14:44.796Z,11.73
2022-08-29T22:17:11.865Z,11.69
2022-08-29T22:19:40.043Z,11.69
2022-08-29T22:22:09.116Z,11.68
2022-08-29T22:24:37.472Z,11.67
2022-08-29T22:27:07.167Z,11.64
2022-08-29T22:29:35.164Z,11.64
2022-08-29T22:32:03.115Z,11.64
2022-08-29T22:34:30.986Z,11.63
2022-08-29T22:36:58.908Z,11.65
2022-08-29T22:39:26.779Z,11.64
2022-08-29T22:41:55.503Z,11.62
2022-08-29T22:47:16.896Z,11.60
2022-08-29T22:49:45.355Z,11.59
2022-08-29T22:52:13.303Z,11.58
2022-08-29T22:54:41.321Z,11.59
2022-08-29T22:57:13.797Z,11.62
2022-08-29T22:59:44.223Z,11.60
2022-08-29T23:02:13.232Z,11.52
2022-08-29T23:04:41.992Z,11.57
2022-08-29T23:07:11.980Z,11.57
2022-08-29T23:09:41.681Z,11.58
2022-08-29T23:12:10.790Z,11.57
2022-08-29T23:14:40.006Z,11.58
2022-08-29T23:17:10.648Z,11.58
2022-08-29T23:19:41.193Z,11.58
2022-08-29T23:22:09.747Z,11.55
2022-08-29T23:24:38.000Z,11.56
2022-08-29T23:27:08.786Z,11.56
2022-08-29T23:29:42.008Z,11.54
2022-08-29T23:32:11.799Z,11.52
2022-08-29T23:34:39.734Z,11.51
2022-08-29T23:37:08.820Z,11.51
2022-08-29T23:39:36.745Z,11.50
2022-08-29T23:42:05.235Z,11.49
2022-08-29T23:44:33.152Z,11.49
2022-08-29T23:47:01.022Z,11.48
2022-08-29T23:49:30.679Z,11.46
2022-08-29T23:51:59.277Z,11.42
2022-08-29T23:54:27.350Z,11.45
2022-08-29T23:56:55.283Z,11.45
2022-08-29T23:59:37.047Z,11.41
